createdAt,value
2023-05-15T00:00:58.177Z,40.44
2023-05-15T00:03:27.199Z,40.93
2023-05-15T00:05:55.661Z,39.97
2023-05-15T00:08:23.916Z,39.48
2023-05-15T00:11:00.775Z,39.91
2023-05-15T00:13:30.395Z,39.12
2023-05-15T00:15:58.844Z,38.68
2023-05-15T00:18:27.249Z,39.09
2023-05-15T00:20:55.754Z,39.67
2023-05-15T00:23:23.986Z,42.89
2023-05-15T00:25:52.413Z,40.01
2023-05-15T00:28:20.688Z,39.32
2023-05-15T00:30:49.988Z,38.99
2023-05-15T00:33:18.376Z,38.54
2023-05-15T00:35:46.627Z,39.78
2023-05-15T00:38:14.880Z,46.35
2023-05-15T00:40:44.127Z,47.25
2023-05-15T00:43:14.303Z,47.61
2023-05-15T00:45:42.833Z,43.88
2023-05-15T00:48:11.244Z,45.25
2023-05-15T00:50:41.571Z,50.14
2023-05-15T00:53:10.699Z,50.64
2023-05-15T00:55:39.332Z,44.91
2023-05-15T00:58:08.262Z,42.99
2023-05-15T01:00:37.447Z,41.89
2023-05-15T01:03:06.755Z,41.25
2023-05-15T01:05:35.284Z,43.00
2023-05-15T01:08:47.097Z,41.49
2023-05-15T01:11:17.685Z,41.13
2023-05-15T01:13:47.498Z,39.65
2023-05-15T01:16:15.794Z,40.04
2023-05-15T01:18:44.162Z,39.84
2023-05-15T01:21:36.371Z,39.49
2023-05-15T01:24:41.764Z,39.83
2023-05-15T01:27:24.300Z,40.41
2023-05-15T01:30:05.094Z,40.15
2023-05-15T01:33:00.221Z,39.51
2023-05-15T01:35:59.294Z,39.76
2023-05-15T01:38:35.533Z,39.77
2023-05-15T01:41:28.067Z,39.44
2023-05-15T01:44:18.071Z,39.86
2023-05-15T01:46:52.942Z,39.31
2023-05-15T01:49:26.851Z,38.95
2023-05-15T01:52:19.143Z,39.63
2023-05-15T01:54:48.483Z,39.23
2023-05-15T01:57:17.162Z,38.84
2023-05-15T01:59:46.892Z,38.68
2023-05-15T02:02:16.309Z,39.29
2023-05-15T02:04:45.917Z,39.25
2023-05-15T02:07:14.982Z,41.10
2023-05-15T02:09:44.173Z,40.24
2023-05-15T02:12:12.795Z,39.87
2023-05-15T02:14:41.727Z,40.51
2023-05-15T02:17:10.013Z,40.14
2023-05-15T02:19:38.271Z,51.02
2023-05-15T02:22:06.550Z,55.74
2023-05-15T02:24:35.042Z,48.54
2023-05-15T02:27:28.880Z,44.89
2023-05-15T02:34:26.388Z,44.33
2023-05-15T02:36:58.467Z,48.79
2023-05-15T02:39:27.263Z,56.77
2023-05-15T02:41:56.303Z,51.27
2023-05-15T02:44:24.978Z,50.87
2023-05-15T02:46:54.773Z,52.71
2023-05-15T02:49:23.141Z,61.87
2023-05-15T02:51:51.764Z,63.42
2023-05-15T02:54:20.184Z,53.24
2023-05-15T02:56:48.439Z,52.13
2023-05-15T02:59:19.759Z,48.74
2023-05-15T03:01:48.432Z,49.05
2023-05-15T03:04:16.805Z,46.17
2023-05-15T03:06:45.098Z,44.92
2023-05-15T03:09:13.391Z,44.34
2023-05-15T03:11:41.675Z,43.44
2023-05-15T03:14:10.006Z,43.47
2023-05-15T03:16:38.943Z,43.59
2023-05-15T03:19:07.542Z,42.91
2023-05-15T03:21:35.837Z,42.79
2023-05-15T03:24:04.193Z,42.50
2023-05-15T03:26:32.516Z,44.01
2023-05-15T03:29:02.217Z,43.71
2023-05-15T03:31:30.724Z,44.01
2023-05-15T03:33:59.094Z,44.41
2023-05-15T03:36:27.352Z,44.94
2023-05-15T03:38:55.664Z,43.14
2023-05-15T03:41:25.964Z,42.72
2023-05-15T03:43:54.182Z,42.27
2023-05-15T03:46:22.463Z,42.06
2023-05-15T03:48:50.698Z,41.84
2023-05-15T03:51:19.007Z,41.78
2023-05-15T03:53:47.226Z,44.07
2023-05-15T03:56:15.626Z,43.52
2023-05-15T03:58:43.887Z,44.52
2023-05-15T04:01:12.238Z,47.50
2023-05-15T04:03:40.630Z,48.95
2023-05-15T04:06:08.877Z,53.98
2023-05-15T04:08:37.568Z,55.88
2023-05-15T04:11:07.064Z,56.69
2023-05-15T04:13:35.320Z,62.63
2023-05-15T04:16:04.423Z,61.04
2023-05-15T04:18:32.772Z,68.79
2023-05-15T04:21:01.004Z,66.45
2023-05-15T04:23:29.209Z,59.83
2023-05-15T04:25:57.421Z,67.06
2023-05-15T04:28:25.869Z,58.25
2023-05-15T04:30:54.304Z,54.88
2023-05-15T04:33:22.509Z,53.13
2023-05-15T04:35:50.818Z,52.73
2023-05-15T04:38:19.259Z,51.12
2023-05-15T04:40:47.461Z,51.50
2023-05-15T04:43:15.745Z,57.47
2023-05-15T04:45:44.062Z,54.08
2023-05-15T04:48:12.289Z,53.37
2023-05-15T04:50:40.570Z,53.81
2023-05-15T04:53:08.794Z,57.25
2023-05-15T04:55:37.004Z,54.79
2023-05-15T04:58:05.258Z,57.74
2023-05-15T05:00:33.586Z,54.74
2023-05-15T05:03:01.926Z,52.35
2023-05-15T05:05:30.162Z,57.02
2023-05-15T05:07:58.380Z,53.76
2023-05-15T05:10:26.619Z,54.05
2023-05-15T05:12:55.104Z,51.93
2023-05-15T05:15:23.664Z,53.42
2023-05-15T05:17:53.108Z,57.66
2023-05-15T05:20:21.491Z,61.25
2023-05-15T05:22:49.793Z,64.88
2023-05-15T05:25:18.167Z,61.68
2023-05-15T05:27:46.405Z,67.15
2023-05-15T05:30:15.077Z,66.09
2023-05-15T05:32:43.422Z,66.86
2023-05-15T05:35:11.677Z,70.38
2023-05-15T05:37:41.259Z,72.41
2023-05-15T05:40:10.775Z,74.37
2023-05-15T05:42:39.076Z,70.76
2023-05-15T05:45:07.938Z,69.19
2023-05-15T05:47:36.185Z,68.57
2023-05-15T05:50:04.885Z,67.71
2023-05-15T05:52:33.157Z,63.11
2023-05-15T05:55:01.357Z,59.61
2023-05-15T05:57:35.846Z,58.97
2023-05-15T06:00:10.688Z,61.08
2023-05-15T06:02:41.134Z,61.55
2023-05-15T06:05:18.426Z,64.03
2023-05-15T06:08:12.478Z,65.56
2023-05-15T06:10:42.217Z,66.19
2023-05-15T06:13:10.487Z,68.92
2023-05-15T06:15:38.827Z,64.67
2023-05-15T06:18:07.145Z,63.38
2023-05-15T06:20:35.515Z,64.93
2023-05-15T06:23:03.865Z,65.24
2023-05-15T06:25:32.782Z,65.93
2023-05-15T06:28:04.235Z,63.20
2023-05-15T06:30:36.613Z,64.71
2023-05-15T06:33:07.055Z,60.65
2023-05-15T06:35:36.794Z,60.22
2023-05-15T06:38:29.892Z,64.90
2023-05-15T06:40:58.282Z,61.91
2023-05-15T06:43:26.505Z,62.83
2023-05-15T06:45:54.818Z,64.84
2023-05-15T06:48:23.039Z,64.87
2023-05-15T06:50:51.463Z,64.25
2023-05-15T06:53:45.187Z,64.68
2023-05-15T06:56:18.738Z,65.52
2023-05-15T06:58:47.073Z,67.74
2023-05-15T07:01:26.668Z,68.29
2023-05-15T07:03:55.147Z,65.63
2023-05-15T07:06:23.400Z,62.91
2023-05-15T07:08:51.863Z,64.48
2023-05-15T07:11:21.108Z,63.07
2023-05-15T07:13:50.701Z,61.38
2023-05-15T07:16:19.228Z,63.01
2023-05-15T07:18:48.654Z,61.90
2023-05-15T07:21:17.075Z,62.59
2023-05-15T07:23:45.302Z,63.51
2023-05-15T07:26:27.481Z,61.30
2023-05-15T07:28:59.742Z,59.99
2023-05-15T07:31:28.126Z,61.39
2023-05-15T07:33:56.957Z,61.87
2023-05-15T07:36:25.271Z,60.38
2023-05-15T07:38:53.556Z,61.76
2023-05-15T07:41:21.926Z,62.06
2023-05-15T07:43:50.204Z,60.24
2023-05-15T07:46:18.543Z,62.28
2023-05-15T07:48:46.826Z,60.02
2023-05-15T07:51:15.077Z,62.01
2023-05-15T07:53:43.333Z,63.70
2023-05-15T07:56:11.665Z,61.47
2023-05-15T07:58:40.282Z,61.13
2023-05-15T08:01:08.656Z,59.63
2023-05-15T08:03:37.075Z,61.04
2023-05-15T08:06:07.255Z,61.86
2023-05-15T08:08:35.739Z,59.96
2023-05-15T08:11:04.008Z,57.51
2023-05-15T08:13:32.359Z,60.45
2023-05-15T08:16:00.666Z,59.21
2023-05-15T08:18:29.057Z,58.05
2023-05-15T08:20:57.354Z,56.92
2023-05-15T08:23:25.670Z,55.18
2023-05-15T08:25:53.905Z,57.01
2023-05-15T08:28:22.145Z,55.11
2023-05-15T08:30:50.483Z,56.51
2023-05-15T08:33:18.861Z,54.96
2023-05-15T08:35:47.163Z,54.23
2023-05-15T08:38:16.603Z,53.96
2023-05-15T08:40:47.675Z,54.91
2023-05-15T08:43:17.910Z,53.69
2023-05-15T08:45:46.263Z,52.54
2023-05-15T08:48:19.514Z,52.79
2023-05-15T08:50:48.047Z,53.10
2023-05-15T08:53:16.638Z,52.64
2023-05-15T08:55:45.310Z,53.17
2023-05-15T08:58:14.561Z,53.22
2023-05-15T09:00:42.929Z,53.30
2023-05-15T09:03:16.514Z,54.08
2023-05-15T09:05:46.495Z,54.02
2023-05-15T09:08:16.085Z,54.20
2023-05-15T09:10:46.945Z,53.30
2023-05-15T09:13:15.324Z,52.88
2023-05-15T09:15:43.691Z,52.83
2023-05-15T09:18:12.408Z,52.37
2023-05-15T09:20:40.846Z,52.87
2023-05-15T09:23:26.377Z,54.46
2023-05-15T09:25:56.783Z,53.90
2023-05-15T09:28:31.103Z,50.73
2023-05-15T09:31:05.041Z,49.53
2023-05-15T09:33:41.524Z,49.44
2023-05-15T09:36:10.763Z,49.04
2023-05-15T09:38:47.364Z,47.94
2023-05-15T09:41:16.038Z,47.34
2023-05-15T09:43:44.593Z,45.96
2023-05-15T09:46:15.877Z,45.31
2023-05-15T09:48:44.290Z,44.69
2023-05-15T09:51:19.818Z,44.36
2023-05-15T09:53:53.261Z,43.49
2023-05-15T09:56:22.484Z,42.16
2023-05-15T09:58:59.417Z,42.29
2023-05-15T10:01:28.033Z,41.76
2023-05-15T10:04:06.285Z,41.53
2023-05-15T10:06:48.447Z,40.68
2023-05-15T10:09:17.079Z,40.17
2023-05-15T10:11:54.248Z,39.64
2023-05-15T10:14:24.284Z,39.03
2023-05-15T10:16:54.097Z,37.65
2023-05-15T10:19:25.724Z,37.65
2023-05-15T10:21:54.788Z,38.58
2023-05-15T10:24:24.005Z,38.56
2023-05-15T10:26:52.557Z,38.87
2023-05-15T10:29:25.383Z,38.34
2023-05-15T10:31:54.487Z,37.65
2023-05-15T10:34:23.553Z,37.61
2023-05-15T10:36:52.085Z,37.29
2023-05-15T10:39:20.777Z,37.18
2023-05-15T10:41:51.332Z,37.17
2023-05-15T10:44:20.618Z,38.83
2023-05-15T10:46:49.697Z,39.11
2023-05-15T10:49:18.090Z,39.21
2023-05-15T10:51:46.443Z,39.68
2023-05-15T10:54:15.165Z,40.50
2023-05-15T10:56:43.496Z,38.59
2023-05-15T10:59:12.093Z,38.02
2023-05-15T11:01:41.944Z,37.43
2023-05-15T11:04:35.195Z,36.35
2023-05-15T11:07:32.218Z,34.60
2023-05-15T11:10:00.673Z,34.20
2023-05-15T11:12:59.123Z,31.84
2023-05-15T11:15:27.730Z,31.62
2023-05-15T11:18:04.872Z,31.27
2023-05-15T11:21:02.918Z,31.51
2023-05-15T11:23:41.013Z,30.69
2023-05-15T11:26:13.835Z,29.51
2023-05-15T11:28:43.772Z,29.42
2023-05-15T11:31:12.268Z,29.86
2023-05-15T11:33:40.862Z,30.25
2023-05-15T11:36:09.280Z,30.03
2023-05-15T11:38:40.060Z,28.13
2023-05-15T11:41:21.692Z,28.68
2023-05-15T11:43:50.760Z,28.31
2023-05-15T11:46:19.191Z,27.64
2023-05-15T11:48:48.316Z,28.00
2023-05-15T11:51:27.526Z,26.31
2023-05-15T11:53:57.072Z,27.21
2023-05-15T11:56:30.762Z,25.82
2023-05-15T11:59:01.248Z,25.68
2023-05-15T12:01:41.307Z,25.14
2023-05-15T12:04:17.774Z,25.71
2023-05-15T12:06:49.760Z,25.98
2023-05-15T12:09:22.665Z,24.88
2023-05-15T12:11:55.763Z,25.43
2023-05-15T12:14:31.371Z,25.41
2023-05-15T12:17:04.312Z,24.51
2023-05-15T12:19:35.941Z,23.90
2023-05-15T12:22:08.399Z,24.62
2023-05-15T12:24:39.750Z,24.08
2023-05-15T12:27:08.743Z,24.19
2023-05-15T12:29:39.363Z,24.44
2023-05-15T12:32:08.648Z,24.56
2023-05-15T12:34:37.239Z,24.03
2023-05-15T12:37:06.114Z,24.00
2023-05-15T12:39:34.339Z,24.03
2023-05-15T12:42:03.616Z,24.56
2023-05-15T12:44:32.424Z,24.08
2023-05-15T12:47:00.703Z,23.62
2023-05-15T12:49:28.921Z,24.23
2023-05-15T12:51:57.312Z,24.11
2023-05-15T12:54:26.239Z,23.68
2023-05-15T12:56:57.466Z,22.71
2023-05-15T12:59:26.059Z,23.95
2023-05-15T13:01:54.341Z,24.00
2023-05-15T13:04:22.747Z,23.76
2023-05-15T13:06:52.555Z,24.70
2023-05-15T13:09:25.265Z,25.04
2023-05-15T13:11:56.392Z,24.15
2023-05-15T13:14:28.928Z,23.61
2023-05-15T13:17:04.790Z,22.49
2023-05-15T13:19:34.525Z,24.43
2023-05-15T13:22:02.832Z,24.47
2023-05-15T13:24:32.709Z,24.95
2023-05-15T13:27:01.271Z,25.27
2023-05-15T13:29:30.646Z,23.74
2023-05-15T13:31:58.931Z,23.29
2023-05-15T13:34:27.675Z,23.37
2023-05-15T13:36:55.917Z,22.84
2023-05-15T13:39:24.180Z,23.25
2023-05-15T13:41:52.448Z,23.09
2023-05-15T13:44:20.783Z,22.33
2023-05-15T13:46:49.121Z,22.06
2023-05-15T13:49:17.437Z,22.58
2023-05-15T13:51:45.629Z,21.58
2023-05-15T13:54:14.012Z,21.52
2023-05-15T13:56:42.342Z,21.44
2023-05-15T13:59:11.105Z,20.88
2023-05-15T14:01:39.350Z,20.19
2023-05-15T14:04:07.689Z,19.45
2023-05-15T14:06:36.189Z,19.32
2023-05-15T14:09:04.723Z,19.11
2023-05-15T14:11:33.157Z,20.19
2023-05-15T14:14:01.371Z,20.79
2023-05-15T14:16:29.726Z,21.67
2023-05-15T14:18:58.143Z,23.03
2023-05-15T14:21:27.702Z,23.70
2023-05-15T14:23:57.081Z,24.87
2023-05-15T14:26:25.929Z,24.21
2023-05-15T14:28:54.173Z,22.16
2023-05-15T14:31:22.431Z,21.12
2023-05-15T14:33:52.551Z,22.19
2023-05-15T14:36:20.459Z,22.03
2023-05-15T14:38:49.094Z,21.51
2023-05-15T14:41:17.408Z,21.47
2023-05-15T14:43:47.458Z,23.04
2023-05-15T14:46:15.757Z,23.10
2023-05-15T14:48:45.220Z,24.13
2023-05-15T14:51:13.473Z,23.21
2023-05-15T14:53:43.290Z,24.05
2023-05-15T14:56:11.871Z,24.17
2023-05-15T14:58:40.336Z,24.59
2023-05-15T15:01:08.758Z,25.34
2023-05-15T15:03:37.229Z,25.17
2023-05-15T15:06:06.093Z,26.43
2023-05-15T15:08:34.321Z,24.86
2023-05-15T15:11:02.635Z,24.08
2023-05-15T15:13:30.985Z,23.00
2023-05-15T15:15:59.264Z,22.90
2023-05-15T15:18:27.630Z,23.84
2023-05-15T15:20:55.916Z,25.60
2023-05-15T15:23:24.234Z,26.12
2023-05-15T15:25:52.525Z,27.34
2023-05-15T15:28:20.707Z,27.65
2023-05-15T15:30:49.200Z,28.24
2023-05-15T15:33:17.481Z,28.17
2023-05-15T15:35:45.727Z,25.91
2023-05-15T15:38:13.952Z,24.78
2023-05-15T15:40:42.378Z,23.33
2023-05-15T15:43:10.801Z,23.32
2023-05-15T15:45:39.149Z,22.03
2023-05-15T15:48:08.373Z,23.11
2023-05-15T15:50:36.666Z,22.80
2023-05-15T15:53:04.909Z,22.40
2023-05-15T15:55:33.158Z,22.48
2023-05-15T15:58:01.358Z,22.80
2023-05-15T16:00:29.629Z,22.31
2023-05-15T16:02:57.976Z,21.68
2023-05-15T16:05:26.392Z,22.22
2023-05-15T16:07:54.658Z,24.29
2023-05-15T16:10:22.906Z,25.01
2023-05-15T16:12:51.264Z,25.47
2023-05-15T16:15:23.059Z,24.89
2023-05-15T16:17:53.749Z,25.25
2023-05-15T16:20:24.226Z,25.41
2023-05-15T16:22:52.896Z,26.85
2023-05-15T16:25:21.280Z,27.75
2023-05-15T16:27:49.508Z,28.78
2023-05-15T16:30:18.884Z,28.78
2023-05-15T16:32:48.389Z,29.14
2023-05-15T16:35:18.762Z,29.49
2023-05-15T16:37:47.200Z,29.32
2023-05-15T16:40:16.020Z,29.09
2023-05-15T16:42:44.392Z,28.63
2023-05-15T16:45:13.691Z,27.73
2023-05-15T16:47:42.085Z,27.64
2023-05-15T16:50:10.803Z,26.76
2023-05-15T16:52:45.051Z,28.41
2023-05-15T16:55:15.883Z,28.81
2023-05-15T16:57:45.417Z,29.25
2023-05-15T17:00:14.885Z,29.63
2023-05-15T17:02:43.736Z,30.43
2023-05-15T17:05:14.061Z,31.08
2023-05-15T17:07:44.619Z,31.45
2023-05-15T17:10:13.016Z,31.69
2023-05-15T17:12:41.500Z,32.13
2023-05-15T17:15:11.635Z,32.64
2023-05-15T17:17:39.959Z,33.81
2023-05-15T17:20:09.202Z,33.97
2023-05-15T17:22:37.644Z,34.60
2023-05-15T17:25:07.371Z,35.35
2023-05-15T17:27:39.764Z,36.62
2023-05-15T17:30:10.228Z,37.00
2023-05-15T17:32:39.899Z,36.19
2023-05-15T17:35:09.146Z,37.17
2023-05-15T17:37:38.057Z,38.12
2023-05-15T17:40:07.315Z,38.15
2023-05-15T17:42:36.105Z,38.96
2023-05-15T17:45:05.319Z,38.98
2023-05-15T17:47:33.650Z,38.62
2023-05-15T17:50:01.982Z,38.69
2023-05-15T17:52:30.272Z,39.08
2023-05-15T17:54:58.500Z,40.31
2023-05-15T17:57:26.913Z,39.19
2023-05-15T17:59:55.300Z,40.39
2023-05-15T18:02:23.554Z,40.45
2023-05-15T18:04:51.904Z,40.97
2023-05-15T18:07:20.410Z,41.39
2023-05-15T18:09:48.808Z,41.37
2023-05-15T18:12:17.086Z,42.76
2023-05-15T18:14:46.061Z,41.96
2023-05-15T18:17:16.146Z,43.23
2023-05-15T18:19:44.880Z,43.57
2023-05-15T18:22:13.248Z,44.01
2023-05-15T18:24:44.284Z,45.20
2023-05-15T18:27:12.693Z,46.62
2023-05-15T18:29:41.017Z,47.33
2023-05-15T18:32:10.485Z,48.79
2023-05-15T18:34:39.853Z,47.24
2023-05-15T18:37:08.119Z,47.37
2023-05-15T18:39:38.170Z,45.62
2023-05-15T18:42:07.955Z,48.09
2023-05-15T18:44:36.328Z,47.99
2023-05-15T18:47:04.784Z,45.57
2023-05-15T18:49:33.863Z,46.12
2023-05-15T18:52:02.158Z,46.13
2023-05-15T18:54:30.718Z,46.12
2023-05-15T18:56:59.066Z,46.60
2023-05-15T18:59:29.010Z,46.45
2023-05-15T19:01:57.301Z,48.68
2023-05-15T19:04:27.633Z,50.18
2023-05-15T19:06:55.888Z,48.60
2023-05-15T19:09:24.187Z,51.41
2023-05-15T19:11:52.637Z,51.25
2023-05-15T19:14:21.430Z,50.21
2023-05-15T19:16:50.048Z,51.37
2023-05-15T19:19:18.955Z,50.92
2023-05-15T19:21:47.516Z,52.53
2023-05-15T19:24:15.932Z,55.58
2023-05-15T19:26:44.339Z,52.49
2023-05-15T19:29:12.556Z,55.56
2023-05-15T19:31:40.880Z,55.21
2023-05-15T19:34:09.256Z,54.55
2023-05-15T19:36:37.539Z,53.83
2023-05-15T19:39:05.753Z,54.07
2023-05-15T19:41:33.994Z,53.14
2023-05-15T19:44:03.192Z,55.04
2023-05-15T19:46:31.432Z,55.97
2023-05-15T19:48:59.718Z,54.77
2023-05-15T19:51:28.018Z,55.89
2023-05-15T19:53:56.796Z,57.12
2023-05-15T19:56:26.086Z,56.43
2023-05-15T19:58:54.417Z,57.57
2023-05-15T20:01:22.800Z,57.99
2023-05-15T20:03:52.684Z,57.08
2023-05-15T20:06:24.435Z,57.47
2023-05-15T20:08:52.808Z,60.51
2023-05-15T20:11:21.128Z,60.54
2023-05-15T20:13:49.419Z,60.75
2023-05-15T20:16:18.755Z,58.09
2023-05-15T20:18:47.992Z,58.95
2023-05-15T20:21:16.636Z,58.66
2023-05-15T20:23:45.367Z,59.88
2023-05-15T20:26:13.766Z,58.13
2023-05-15T20:28:44.371Z,58.55
2023-05-15T20:31:13.821Z,60.36
2023-05-15T20:33:42.163Z,58.26
2023-05-15T20:36:10.634Z,57.18
2023-05-15T20:38:38.892Z,57.71
2023-05-15T20:41:07.223Z,59.44
2023-05-15T20:43:35.619Z,60.56
2023-05-15T20:46:03.871Z,59.65
2023-05-15T20:48:32.167Z,60.13
2023-05-15T20:51:00.495Z,58.95
2023-05-15T20:53:31.391Z,58.13
2023-05-15T20:55:59.792Z,59.85
2023-05-15T20:58:28.118Z,58.56
2023-05-15T21:00:58.201Z,58.92
2023-05-15T21:03:27.043Z,58.44
2023-05-15T21:05:57.360Z,60.60
2023-05-15T21:08:27.763Z,60.75
2023-05-15T21:10:56.120Z,59.66
2023-05-15T21:13:24.358Z,61.57
2023-05-15T21:15:52.625Z,62.37
2023-05-15T21:18:20.837Z,61.55
2023-05-15T21:20:49.122Z,63.04
2023-05-15T21:23:18.138Z,60.87
2023-05-15T21:25:46.364Z,61.01
2023-05-15T21:28:14.712Z,62.80
2023-05-15T21:30:43.046Z,62.20
2023-05-15T21:33:11.411Z,63.28
2023-05-15T21:35:41.246Z,62.73
2023-05-15T21:38:09.777Z,60.78
2023-05-15T21:40:38.197Z,61.83
2023-05-15T21:43:06.544Z,65.84
2023-05-15T21:45:34.842Z,64.18
2023-05-15T21:48:04.242Z,63.75
2023-05-15T21:53:16.003Z,63.20
2023-05-15T21:58:26.985Z,62.28
2023-05-15T22:00:55.372Z,62.36
2023-05-15T22:03:23.673Z,63.86
2023-05-15T22:05:52.760Z,64.62
2023-05-15T22:08:21.601Z,61.95
2023-05-15T22:10:50.201Z,64.92
2023-05-15T22:13:20.151Z,62.84
2023-05-15T22:15:48.401Z,63.07
2023-05-15T22:18:16.677Z,62.21
2023-05-15T22:20:45.038Z,63.39
2023-05-15T22:23:13.279Z,61.13
2023-05-15T22:25:41.877Z,63.48
2023-05-15T22:28:11.268Z,60.90
2023-05-15T22:30:39.724Z,64.28
2023-05-15T22:33:07.972Z,64.07
2023-05-15T22:35:37.194Z,65.02
2023-05-15T22:38:07.220Z,65.53
2023-05-15T22:40:35.520Z,65.25
2023-05-15T22:43:03.883Z,64.87
2023-05-15T22:45:32.221Z,62.08
2023-05-15T22:48:01.588Z,64.17
2023-05-15T22:50:29.946Z,63.36
2023-05-15T22:52:58.204Z,61.87
2023-05-15T22:55:26.824Z,62.73
2023-05-15T22:57:55.421Z,61.52
2023-05-15T23:00:24.489Z,62.11
2023-05-15T23:02:55.258Z,60.62
2023-05-15T23:05:24.852Z,61.75
2023-05-15T23:07:53.467Z,64.17
2023-05-15T23:10:22.021Z,62.32
2023-05-15T23:12:50.702Z,63.12
2023-05-15T23:15:19.339Z,61.77
2023-05-15T23:17:48.040Z,62.03
2023-05-15T23:20:16.539Z,62.15
2023-05-15T23:22:44.771Z,60.03
2023-05-15T23:25:13.181Z,59.81
2023-05-15T23:27:41.533Z,63.38
2023-05-15T23:30:10.187Z,63.87
2023-05-15T23:32:38.471Z,62.22
2023-05-15T23:35:07.487Z,62.28
2023-05-15T23:37:35.838Z,61.97
2023-05-15T23:40:05.960Z,61.86
2023-05-15T23:42:35.295Z,61.86
2023-05-15T23:45:05.253Z,62.61
2023-05-15T23:47:34.727Z,61.78
2023-05-15T23:50:03.630Z,62.20
2023-05-15T23:52:31.904Z,64.23
2023-05-15T23:55:00.529Z,63.63
2023-05-15T23:57:28.812Z,61.51
2023-05-15T23:59:57.078Z,63.90
